Time;durP1;ratioP1;P1;durP2;ratioP2;P2;SDS_P1;SDS_P2;PMS_P1;PMS_P2;Temp;Humidity;BMP_temperature;BMP_pressure;BME280_temperature;BME280_humidity;BME280_pressure;Samples;Min_cycle;Max_cycle;Signal;HPM_P1;HPM_P2
2023/11/26 00:02:12;;;;;;;;;;;19.10;66.60;;;;;;4990705;28;1922;-70
2023/11/26 00:04:39;;;;;;;;;;;19.20;66.60;;;;;;5001530;28;1439;-71
2023/11/26 00:07:05;;;;;;;;;;;19.10;66.60;;;;;;5002442;28;1478;-69
2023/11/26 00:09:33;;;;;;;;;;;19.10;66.60;;;;;;5003277;28;1508;-70
2023/11/26 00:11:58;;;;;;;;;;;19.10;66.60;;;;;;4989720;28;1768;-70
2023/11/26 00:14:24;;;;;;;;;;;19.10;66.60;;;;;;5002195;28;1339;-70
2023/11/26 00:16:50;;;;;;;;;;;19.10;66.60;;;;;;5001478;28;1346;-69
2023/11/26 00:19:16;;;;;;;;;;;19.10;67.40;;;;;;5001952;28;1586;-71
2023/11/26 00:21:43;;;;;;;;;;;19.10;66.70;;;;;;5002430;28;1969;-71
2023/11/26 00:24:08;;;;;;;;;;;19.10;66.60;;;;;;4990944;28;1448;-70
2023/11/26 00:26:34;;;;;;;;;;;19.10;66.60;;;;;;5000834;28;1405;-71
2023/11/26 00:29:00;;;;;;;;;;;19.10;66.60;;;;;;4998023;28;1584;-71
2023/11/26 00:31:25;;;;;;;;;;;19.10;66.70;;;;;;5001839;28;1330;-71
2023/11/26 00:33:51;;;;;;;;;;;19.10;66.70;;;;;;5001378;28;1464;-71
2023/11/26 00:36:16;;;;;;;;;;;19.10;66.70;;;;;;5001170;28;1323;-71
2023/11/26 00:38:42;;;;;;;;;;;19.10;66.70;;;;;;4987411;28;1326;-71
2023/11/26 00:41:08;;;;;;;;;;;19.10;66.70;;;;;;5002030;28;1380;-70
2023/11/26 00:43:33;;;;;;;;;;;19.10;66.60;;;;;;5005742;28;1903;-71
2023/11/26 00:45:59;;;;;;;;;;;19.10;66.70;;;;;;5002480;28;1265;-71
2023/11/26 00:48:24;;;;;;;;;;;19.10;66.70;;;;;;5003893;28;1445;-70
2023/11/26 00:50:50;;;;;;;;;;;19.10;66.70;;;;;;5004163;28;1330;-71
2023/11/26 00:53:15;;;;;;;;;;;19.10;66.70;;;;;;5004005;28;1350;-71
2023/11/26 00:55:41;;;;;;;;;;;19.10;66.70;;;;;;4993311;28;1464;-71
2023/11/26 00:58:06;;;;;;;;;;;19.10;66.70;;;;;;5006654;28;1419;-72
2023/11/26 01:00:32;;;;;;;;;;;19.10;66.70;;;;;;5002929;28;1348;-71
2023/11/26 01:02:57;;;;;;;;;;;19.10;66.60;;;;;;4986344;28;1956;-71
2023/11/26 01:05:23;;;;;;;;;;;19.10;66.70;;;;;;4986891;28;1379;-71
2023/11/26 01:07:49;;;;;;;;;;;19.10;66.70;;;;;;5005032;28;1574;-71
2023/11/26 01:10:14;;;;;;;;;;;19.10;66.60;;;;;;5005458;28;1236;-71
2023/11/26 01:12:39;;;;;;;;;;;19.10;66.70;;;;;;5003536;28;1445;-71
2023/11/26 01:15:08;;;;;;;;;;;19.10;66.60;;;;;;5005066;28;1327;-72
2023/11/26 01:17:35;;;;;;;;;;;19.10;66.70;;;;;;5001963;28;1281;-71
2023/11/26 01:20:03;;;;;;;;;;;19.10;66.60;;;;;;5004593;28;1481;-72
2023/11/26 01:22:29;;;;;;;;;;;19.10;66.60;;;;;;5003920;28;1937;-72
2023/11/26 01:24:55;;;;;;;;;;;19.10;66.60;;;;;;5005894;28;1414;-71
2023/11/26 01:27:20;;;;;;;;;;;19.10;66.60;;;;;;5004652;28;1245;-71
2023/11/26 01:29:45;;;;;;;;;;;19.10;66.60;;;;;;5003792;28;1354;-71
2023/11/26 01:32:12;;;;;;;;;;;19.10;66.60;;;;;;5003512;28;1197;-71
2023/11/26 01:34:37;;;;;;;;;;;19.10;66.50;;;;;;5003750;28;1512;-71
2023/11/26 01:37:03;;;;;;;;;;;19.10;66.50;;;;;;5005202;28;1585;-71
2023/11/26 01:39:28;;;;;;;;;;;19.10;66.50;;;;;;5005606;28;1301;-70
2023/11/26 01:41:54;;;;;;;;;;;19.10;66.40;;;;;;5003152;28;1989;-71
2023/11/26 01:44:19;;;;;;;;;;;19.10;66.40;;;;;;5005339;28;1495;-72
2023/11/26 01:46:44;;;;;;;;;;;19.10;66.50;;;;;;5005445;28;1387;-71
2023/11/26 01:49:10;;;;;;;;;;;19.10;66.40;;;;;;5007018;28;939;-71
2023/11/26 01:51:35;;;;;;;;;;;19.20;66.50;;;;;;5002602;28;947;-71
2023/11/26 01:54:01;;;;;;;;;;;19.10;66.40;;;;;;4986021;28;1542;-70
2023/11/26 01:56:26;;;;;;;;;;;19.10;66.50;;;;;;5006248;28;1429;-70
2023/11/26 01:58:52;;;;;;;;;;;19.10;66.40;;;;;;5006278;28;1048;-70
2023/11/26 02:01:20;;;;;;;;;;;19.20;66.40;;;;;;5005674;28;1103;-71
2023/11/26 02:03:46;;;;;;;;;;;19.10;66.40;;;;;;5004631;28;1969;-71
2023/11/26 02:06:12;;;;;;;;;;;19.10;66.40;;;;;;5003670;28;1359;-70
2023/11/26 02:08:37;;;;;;;;;;;19.10;66.40;;;;;;4983709;28;1224;-70
2023/11/26 02:11:03;;;;;;;;;;;19.10;66.40;;;;;;4985825;28;1659;-69
2023/11/26 02:13:29;;;;;;;;;;;19.10;66.40;;;;;;4991355;28;1220;-70
2023/11/26 02:15:54;;;;;;;;;;;19.10;66.40;;;;;;5003138;28;1379;-69
2023/11/26 02:18:21;;;;;;;;;;;19.20;66.50;;;;;;5001491;28;1341;-69
2023/11/26 02:20:46;;;;;;;;;;;19.10;66.40;;;;;;5003309;28;1621;-70
2023/11/26 02:23:12;;;;;;;;;;;19.10;66.40;;;;;;5003770;28;1906;-70
2023/11/26 02:25:38;;;;;;;;;;;19.10;66.40;;;;;;4990454;28;1462;-71
2023/11/26 02:28:05;;;;;;;;;;;19.10;66.40;;;;;;4988845;28;1662;-72
2023/11/26 02:30:34;;;;;;;;;;;19.10;66.40;;;;;;5003568;28;1294;-72
2023/11/26 02:32:59;;;;;;;;;;;19.10;66.40;;;;;;4986671;28;1407;-70
2023/11/26 02:35:26;;;;;;;;;;;19.10;66.40;;;;;;5000953;28;1610;-69
2023/11/26 02:37:52;;;;;;;;;;;19.10;66.50;;;;;;5003125;28;1368;-71
2023/11/26 02:40:19;;;;;;;;;;;19.10;66.50;;;;;;5001161;28;1332;-71
2023/11/26 02:42:44;;;;;;;;;;;19.10;66.50;;;;;;5001977;28;1942;-71
2023/11/26 02:45:10;;;;;;;;;;;19.10;66.50;;;;;;5002979;28;1386;-71
2023/11/26 02:47:36;;;;;;;;;;;19.10;66.50;;;;;;5004262;28;1330;-72
2023/11/26 02:50:04;;;;;;;;;;;19.10;66.50;;;;;;4984072;28;1535;-71
2023/11/26 02:52:29;;;;;;;;;;;19.10;66.50;;;;;;5001801;28;1308;-72
2023/11/26 02:54:55;;;;;;;;;;;19.10;66.50;;;;;;4984821;28;1345;-72
2023/11/26 02:57:20;;;;;;;;;;;19.10;66.50;;;;;;5003073;28;1403;-71
2023/11/26 02:59:46;;;;;;;;;;;19.10;66.50;;;;;;4999850;28;1286;-71
2023/11/26 03:02:14;;;;;;;;;;;19.10;66.50;;;;;;5002239;28;1905;-71
2023/11/26 03:04:44;;;;;;;;;;;19.10;66.60;;;;;;5000495;28;1434;-71
2023/11/26 03:07:10;;;;;;;;;;;19.10;66.60;;;;;;5001305;28;1474;-72
2023/11/26 03:12:56;;;;;;;;;;;19.10;66.60;;;;;;5003267;28;1329;-72
2023/11/26 03:15:05;;;;;;;;;;;19.10;66.50;;;;;;4987044;28;1599;-71
2023/11/26 03:17:31;;;;;;;;;;;19.10;66.60;;;;;;5000409;28;1422;-70
2023/11/26 03:19:56;;;;;;;;;;;19.10;66.50;;;;;;5004197;28;1618;-71
2023/11/26 03:22:23;;;;;;;;;;;19.10;66.50;;;;;;4999722;28;1903;-71
2023/11/26 03:24:49;;;;;;;;;;;19.10;66.60;;;;;;5001552;28;1538;-70
2023/11/26 03:27:15;;;;;;;;;;;19.10;66.50;;;;;;5001995;28;1460;-69
2023/11/26 03:29:40;;;;;;;;;;;19.10;66.50;;;;;;5002474;28;1424;-71
2023/11/26 03:32:06;;;;;;;;;;;19.10;66.50;;;;;;4999452;28;1351;-70
2023/11/26 03:34:32;;;;;;;;;;;19.10;66.50;;;;;;5001940;28;1388;-72
2023/11/26 03:36:57;;;;;;;;;;;19.10;66.50;;;;;;5003719;28;1925;-71
2023/11/26 03:39:23;;;;;;;;;;;19.10;66.50;;;;;;4990425;28;1389;-72
2023/11/26 03:41:48;;;;;;;;;;;19.10;66.40;;;;;;4988082;28;2122;-71
2023/11/26 03:44:14;;;;;;;;;;;19.10;66.40;;;;;;5001877;28;1348;-71
2023/11/26 03:46:40;;;;;;;;;;;19.10;66.40;;;;;;5001529;28;1464;-71
2023/11/26 03:49:06;;;;;;;;;;;19.10;66.40;;;;;;5002947;28;1447;-70
2023/11/26 03:51:32;;;;;;;;;;;19.20;66.40;;;;;;5001023;28;1576;-70
2023/11/26 03:53:58;;;;;;;;;;;19.10;66.30;;;;;;5000647;28;1696;-70
2023/11/26 03:56:24;;;;;;;;;;;19.10;67.00;;;;;;5001065;28;1564;-71
2023/11/26 03:58:49;;;;;;;;;;;19.10;66.30;;;;;;5001898;28;1298;-71
2023/11/26 04:01:15;;;;;;;;;;;19.20;66.40;;;;;;5001841;28;1154;-71
2023/11/26 04:03:40;;;;;;;;;;;19.10;66.40;;;;;;5001841;28;1955;-70
2023/11/26 04:06:06;;;;;;;;;;;19.20;66.30;;;;;;5001037;28;1328;-70
2023/11/26 04:08:31;;;;;;;;;;;19.20;66.40;;;;;;4999090;28;1241;-70
2023/11/26 04:10:57;;;;;;;;;;;19.10;66.30;;;;;;5002760;28;1228;-70
2023/11/26 04:13:24;;;;;;;;;;;19.10;66.30;;;;;;5001675;28;1529;-71
2023/11/26 04:15:55;;;;;;;;;;;19.10;66.30;;;;;;4999124;28;1363;-71
2023/11/26 04:18:21;;;;;;;;;;;19.10;66.30;;;;;;5000085;28;1416;-72
2023/11/26 04:20:47;;;;;;;;;;;19.10;66.30;;;;;;4993613;28;1297;-71
2023/11/26 04:23:14;;;;;;;;;;;19.10;66.30;;;;;;5004198;28;1906;-70
2023/11/26 04:25:39;;;;;;;;;;;19.10;66.30;;;;;;5004978;28;1390;-70
2023/11/26 04:28:05;;;;;;;;;;;19.10;66.40;;;;;;5007874;28;1381;-72
2023/11/26 04:30:31;;;;;;;;;;;19.10;66.30;;;;;;4994468;28;1424;-71
2023/11/26 04:32:57;;;;;;;;;;;19.10;66.30;;;;;;5005415;28;1591;-72
2023/11/26 04:35:23;;;;;;;;;;;19.10;66.30;;;;;;5001888;28;1431;-72
2023/11/26 04:37:49;;;;;;;;;;;19.10;66.30;;;;;;5002647;28;1269;-71
2023/11/26 04:40:15;;;;;;;;;;;19.10;66.40;;;;;;5005283;28;1360;-72
2023/11/26 04:42:41;;;;;;;;;;;19.10;66.40;;;;;;4993191;28;1915;-73
2023/11/26 04:45:07;;;;;;;;;;;19.10;66.40;;;;;;5003118;28;1285;-71
2023/11/26 04:47:35;;;;;;;;;;;19.10;66.40;;;;;;5004601;28;1234;-71
2023/11/26 04:50:01;;;;;;;;;;;19.10;66.40;;;;;;5003833;28;1057;-71
2023/11/26 04:52:26;;;;;;;;;;;19.10;66.40;;;;;;5002330;28;1060;-72
2023/11/26 04:54:52;;;;;;;;;;;19.10;66.40;;;;;;4993598;28;1288;-72
2023/11/26 04:57:17;;;;;;;;;;;19.10;66.40;;;;;;5002530;28;1463;-72
2023/11/26 04:59:43;;;;;;;;;;;19.10;66.40;;;;;;5003667;28;1547;-72
2023/11/26 05:02:10;;;;;;;;;;;19.10;66.40;;;;;;5003878;28;1968;-73
2023/11/26 05:04:36;;;;;;;;;;;19.10;66.40;;;;;;4985959;28;1835;-73
2023/11/26 05:07:01;;;;;;;;;;;19.10;66.40;;;;;;5003742;28;1246;-73
2023/11/26 05:09:27;;;;;;;;;;;19.10;66.40;;;;;;5003228;28;1541;-71
2023/11/26 05:11:52;;;;;;;;;;;19.10;66.50;;;;;;5003887;28;1157;-71
2023/11/26 05:14:18;;;;;;;;;;;19.10;66.50;;;;;;5004074;28;1371;-70
2023/11/26 05:16:43;;;;;;;;;;;19.10;66.50;;;;;;4992086;28;1464;-70
2023/11/26 05:19:11;;;;;;;;;;;19.10;66.50;;;;;;5005141;28;1362;-70
2023/11/26 05:21:38;;;;;;;;;;;19.10;66.50;;;;;;5005404;28;1973;-70
2023/11/26 05:24:04;;;;;;;;;;;19.10;66.50;;;;;;4991339;28;1415;-71
2023/11/26 05:26:29;;;;;;;;;;;19.10;66.50;;;;;;5002880;28;1317;-70
2023/11/26 05:28:55;;;;;;;;;;;19.10;66.50;;;;;;5001172;28;1970;-72
2023/11/26 05:31:21;;;;;;;;;;;19.10;66.50;;;;;;5000099;28;2285;-70
2023/11/26 05:33:46;;;;;;;;;;;19.10;66.50;;;;;;5002462;28;1225;-70
2023/11/26 05:36:12;;;;;;;;;;;19.10;66.50;;;;;;5005993;28;1255;-70
2023/11/26 05:38:37;;;;;;;;;;;19.10;66.50;;;;;;4987236;28;1589;-69
2023/11/26 05:41:03;;;;;;;;;;;19.10;66.50;;;;;;4992407;28;1293;-69
2023/11/26 05:43:30;;;;;;;;;;;19.10;66.50;;;;;;4991743;28;1902;-71
2023/11/26 05:45:55;;;;;;;;;;;19.10;66.50;;;;;;5003053;28;1304;-69
2023/11/26 05:48:21;;;;;;;;;;;19.10;66.50;;;;;;5001971;28;1018;-69
2023/11/26 05:50:46;;;;;;;;;;;19.10;66.50;;;;;;5003737;28;1340;-69
2023/11/26 05:53:12;;;;;;;;;;;19.10;66.50;;;;;;5002977;28;1248;-69
2023/11/26 05:55:38;;;;;;;;;;;19.10;66.50;;;;;;5001120;28;1408;-68
2023/11/26 05:58:03;;;;;;;;;;;19.10;66.50;;;;;;5001349;28;1282;-69
2023/11/26 06:00:29;;;;;;;;;;;19.10;66.50;;;;;;4984401;28;1357;-68
2023/11/26 06:02:56;;;;;;;;;;;19.10;66.50;;;;;;5004400;28;1899;-70
2023/11/26 06:05:22;;;;;;;;;;;19.10;66.50;;;;;;5002888;28;1470;-72
2023/11/26 06:07:47;;;;;;;;;;;19.10;66.50;;;;;;4987001;28;1400;-70
2023/11/26 06:10:13;;;;;;;;;;;19.10;66.50;;;;;;5003363;28;1542;-70
2023/11/26 06:12:38;;;;;;;;;;;19.10;66.50;;;;;;4990694;28;1388;-70
2023/11/26 06:15:04;;;;;;;;;;;19.10;66.50;;;;;;5000712;28;1450;-70
2023/11/26 06:17:30;;;;;;;;;;;19.10;66.50;;;;;;5002664;28;1330;-72
2023/11/26 06:19:55;;;;;;;;;;;19.10;66.50;;;;;;5001487;28;1336;-68
2023/11/26 06:22:22;;;;;;;;;;;19.10;66.50;;;;;;5002337;28;1899;-70
2023/11/26 06:24:47;;;;;;;;;;;19.10;66.50;;;;;;4973985;28;1314;-69
2023/11/26 06:27:13;;;;;;;;;;;19.10;66.50;;;;;;5003585;28;1486;-72
2023/11/26 06:29:38;;;;;;;;;;;19.10;66.50;;;;;;4982243;28;1287;-70
2023/11/26 06:32:04;;;;;;;;;;;19.10;66.50;;;;;;4989652;28;1393;-70
2023/11/26 06:34:30;;;;;;;;;;;19.10;66.50;;;;;;4998405;28;1331;-70
2023/11/26 06:36:55;;;;;;;;;;;19.10;66.50;;;;;;4988082;28;1192;-71
2023/11/26 06:39:23;;;;;;;;;;;19.10;66.50;;;;;;4999566;28;1240;-72
2023/11/26 06:41:48;;;;;;;;;;;19.10;66.60;;;;;;5002792;28;1945;-72
2023/11/26 06:44:14;;;;;;;;;;;19.10;66.50;;;;;;5001758;28;1273;-71
2023/11/26 06:46:40;;;;;;;;;;;19.10;66.50;;;;;;5003281;28;976;-70
2023/11/26 06:49:05;;;;;;;;;;;19.10;66.50;;;;;;5000382;28;1463;-69
2023/11/26 06:51:31;;;;;;;;;;;19.10;66.50;;;;;;5002180;28;1367;-69
2023/11/26 06:53:57;;;;;;;;;;;19.10;66.60;;;;;;4986911;28;1222;-69
2023/11/26 06:56:22;;;;;;;;;;;19.10;66.60;;;;;;5003024;28;1229;-67
2023/11/26 06:58:48;;;;;;;;;;;19.10;66.60;;;;;;4989752;28;1496;-68
2023/11/26 07:01:13;;;;;;;;;;;19.10;66.60;;;;;;4989615;28;1433;-67
2023/11/26 07:03:39;;;;;;;;;;;19.10;65.30;;;;;;5002552;28;1914;-68
2023/11/26 07:06:05;;;;;;;;;;;19.10;62.00;;;;;;5003419;28;1520;-68
2023/11/26 07:08:33;;;;;;;;;;;19.10;63.10;;;;;;4982818;28;1587;-67
2023/11/26 07:10:59;;;;;;;;;;;19.00;61.40;;;;;;4983646;28;1255;-68
2023/11/26 07:13:25;;;;;;;;;;;19.00;61.60;;;;;;5001528;28;1365;-67
2023/11/26 07:15:51;;;;;;;;;;;19.10;61.00;;;;;;5001686;28;1820;-66
2023/11/26 07:18:16;;;;;;;;;;;19.10;59.80;;;;;;5001351;28;1244;-67
2023/11/26 07:20:42;;;;;;;;;;;19.10;60.30;;;;;;4984466;28;1496;-67
2023/11/26 07:23:07;;;;;;;;;;;19.20;61.40;;;;;;4998190;28;1894;-66
2023/11/26 07:25:33;;;;;;;;;;;19.30;61.10;;;;;;4984203;28;1544;-66
2023/11/26 07:28:02;;;;;;;;;;;19.50;61.50;;;;;;4999195;28;1547;-66
2023/11/26 07:30:31;;;;;;;;;;;19.60;61.40;;;;;;4998563;28;1159;-68
2023/11/26 07:32:57;;;;;;;;;;;19.80;61.30;;;;;;4999275;28;1003;-68
2023/11/26 07:35:22;;;;;;;;;;;19.90;61.00;;;;;;5002721;28;1320;-67
2023/11/26 07:37:48;;;;;;;;;;;20.00;60.80;;;;;;4998727;28;1236;-67
2023/11/26 07:40:13;;;;;;;;;;;20.20;60.60;;;;;;5000117;28;1403;-67
2023/11/26 07:42:40;;;;;;;;;;;20.30;60.30;;;;;;5001567;28;1902;-68
2023/11/26 07:45:07;;;;;;;;;;;20.50;60.20;;;;;;4995733;28;1450;-68
2023/11/26 07:47:32;;;;;;;;;;;20.60;59.90;;;;;;4972574;28;1268;-68
2023/11/26 07:49:57;;;;;;;;;;;20.70;59.80;;;;;;5002094;28;1400;-67
2023/11/26 07:52:23;;;;;;;;;;;20.80;59.60;;;;;;5003665;28;1233;-67
2023/11/26 07:54:49;;;;;;;;;;;20.90;59.50;;;;;;5004573;28;1369;-69
2023/11/26 07:57:15;;;;;;;;;;;21.00;59.40;;;;;;5004287;28;883;-69
2023/11/26 07:59:43;;;;;;;;;;;21.10;59.20;;;;;;4986740;28;1685;-69
2023/11/26 08:02:13;;;;;;;;;;;21.20;59.10;;;;;;4999683;28;2005;-69
2023/11/26 08:04:38;;;;;;;;;;;21.30;59.00;;;;;;5000717;28;1297;-69
2023/11/26 08:07:05;;;;;;;;;;;21.30;58.90;;;;;;5000883;28;2113;-69
2023/11/26 08:09:32;;;;;;;;;;;21.30;58.70;;;;;;4999550;28;1337;-69
2023/11/26 08:12:00;;;;;;;;;;;21.40;58.70;;;;;;4990469;28;1392;-70
2023/11/26 08:14:26;;;;;;;;;;;21.50;58.70;;;;;;5002663;28;1276;-70
2023/11/26 08:16:52;;;;;;;;;;;21.50;58.60;;;;;;5002268;28;1418;-70
2023/11/26 08:19:18;;;;;;;;;;;21.60;58.50;;;;;;5000020;28;1481;-69
2023/11/26 08:21:44;;;;;;;;;;;21.60;58.50;;;;;;4991499;28;1955;-70
2023/11/26 08:24:18;;;;;;;;;;;21.60;58.50;;;;;;5003142;28;1377;-70
2023/11/26 08:26:46;;;;;;;;;;;21.60;58.40;;;;;;4998680;28;1342;-70
2023/11/26 08:29:13;;;;;;;;;;;21.70;58.40;;;;;;5000630;28;1150;-69
2023/11/26 08:31:42;;;;;;;;;;;21.70;58.40;;;;;;4990000;28;1481;-69
2023/11/26 08:34:08;;;;;;;;;;;21.70;58.50;;;;;;4999683;28;1460;-69
2023/11/26 08:36:35;;;;;;;;;;;21.70;58.50;;;;;;4998696;28;1295;-70
2023/11/26 08:39:01;;;;;;;;;;;21.70;58.60;;;;;;4997692;28;1372;-69
2023/11/26 08:41:29;;;;;;;;;;;21.70;58.70;;;;;;4989551;28;1586;-69
2023/11/26 08:43:57;;;;;;;;;;;21.70;58.60;;;;;;5001233;28;1938;-69
2023/11/26 08:46:24;;;;;;;;;;;21.70;58.80;;;;;;5000409;28;1451;-69
2023/11/26 08:48:52;;;;;;;;;;;21.60;58.80;;;;;;4995179;28;1545;-69
2023/11/26 08:51:18;;;;;;;;;;;21.60;58.70;;;;;;5001507;28;1273;-69
2023/11/26 08:53:44;;;;;;;;;;;21.60;58.90;;;;;;5000021;28;1496;-69
2023/11/26 08:56:09;;;;;;;;;;;21.60;59.00;;;;;;5001071;28;1735;-69
2023/11/26 08:58:35;;;;;;;;;;;21.60;59.00;;;;;;5001070;28;1261;-69
2023/11/26 09:01:00;;;;;;;;;;;21.60;59.10;;;;;;4982303;28;1294;-68
2023/11/26 09:03:27;;;;;;;;;;;21.60;59.20;;;;;;4990579;28;1922;-69
2023/11/26 09:05:53;;;;;;;;;;;21.50;59.20;;;;;;5006392;28;1281;-68
2023/11/26 09:08:19;;;;;;;;;;;21.50;59.20;;;;;;4994015;28;920;-69
2023/11/26 09:10:44;;;;;;;;;;;21.60;59.30;;;;;;5005988;28;1396;-71
2023/11/26 09:13:10;;;;;;;;;;;21.60;59.20;;;;;;5003177;28;1625;-71
2023/11/26 09:15:38;;;;;;;;;;;21.60;59.20;;;;;;4987585;28;1487;-71
2023/11/26 09:18:04;;;;;;;;;;;21.60;59.10;;;;;;5005485;28;1256;-71
2023/11/26 09:20:29;;;;;;;;;;;21.70;59.10;;;;;;5003317;28;1428;-69
2023/11/26 09:22:55;;;;;;;;;;;21.70;59.10;;;;;;4992717;28;1956;-69
2023/11/26 09:25:20;;;;;;;;;;;21.70;59.00;;;;;;5003274;28;1296;-69
2023/11/26 09:27:46;;;;;;;;;;;21.80;59.00;;;;;;5004154;28;1254;-69
2023/11/26 09:30:12;;;;;;;;;;;21.80;58.90;;;;;;5004785;28;1394;-69
2023/11/26 09:32:38;;;;;;;;;;;21.80;58.80;;;;;;5003308;28;1538;-69
2023/11/26 09:35:04;;;;;;;;;;;21.80;58.80;;;;;;5003794;28;1374;-69
2023/11/26 09:37:35;;;;;;;;;;;21.90;58.80;;;;;;5003913;28;1326;-69
2023/11/26 09:40:01;;;;;;;;;;;21.90;58.80;;;;;;5002960;28;1481;-69
2023/11/26 09:42:27;;;;;;;;;;;21.90;58.70;;;;;;5003980;28;1911;-69
2023/11/26 09:44:52;;;;;;;;;;;21.90;58.70;;;;;;5005798;28;1376;-69
2023/11/26 09:47:18;;;;;;;;;;;22.00;58.70;;;;;;5003679;28;1222;-69
2023/11/26 09:49:44;;;;;;;;;;;22.00;58.70;;;;;;5002268;28;1296;-68
2023/11/26 09:52:09;;;;;;;;;;;22.00;58.70;;;;;;5001035;28;1334;-69
2023/11/26 09:54:35;;;;;;;;;;;22.00;58.50;;;;;;4992102;28;1303;-69
2023/11/26 09:57:01;;;;;;;;;;;22.00;58.50;;;;;;5003296;28;1588;-69
2023/11/26 09:59:27;;;;;;;;;;;22.00;58.70;;;;;;4991849;28;1424;-68
2023/11/26 10:01:52;;;;;;;;;;;22.00;58.70;;;;;;5001913;28;2014;-71
2023/11/26 10:04:18;;;;;;;;;;;22.00;58.80;;;;;;5007407;28;1480;-69
2023/11/26 10:06:48;;;;;;;;;;;22.00;58.70;;;;;;4976595;28;1349;-69
2023/11/26 10:09:16;;;;;;;;;;;22.00;58.70;;;;;;4987841;28;1523;-69
2023/11/26 10:11:41;;;;;;;;;;;22.00;58.80;;;;;;4992221;28;1348;-69
2023/11/26 10:14:12;;;;;;;;;;;22.00;58.80;;;;;;4991852;28;4133;-69
2023/11/26 10:16:38;;;;;;;;;;;21.90;58.80;;;;;;4997719;28;4469;-70
2023/11/26 10:19:03;;;;;;;;;;;21.90;58.90;;;;;;4997273;28;4524;-69
2023/11/26 10:21:29;;;;;;;;;;;21.90;58.90;;;;;;4999731;28;4032;-69
2023/11/26 10:23:55;;;;;;;;;;;21.80;58.90;;;;;;5001308;28;1906;-69
2023/11/26 10:26:26;;;;;;;;;;;21.80;59.00;;;;;;5005398;28;1300;-69
2023/11/26 10:29:01;;;;;;;;;;;21.80;59.10;;;;;;5002456;28;1314;-69
2023/11/26 10:31:27;;;;;;;;;;;21.80;59.10;;;;;;5001752;28;1399;-69
2023/11/26 10:34:00;;;;;;;;;;;21.80;59.20;;;;;;5004166;28;1358;-69
2023/11/26 10:36:30;;;;;;;;;;;21.70;59.20;;;;;;4990471;28;1305;-69
2023/11/26 10:38:56;;;;;;;;;;;21.70;59.30;;;;;;5001267;28;1452;-69
2023/11/26 10:41:21;;;;;;;;;;;21.70;59.30;;;;;;5000712;28;1923;-70
2023/11/26 10:43:47;;;;;;;;;;;21.70;59.40;;;;;;5001993;28;1910;-69
2023/11/26 10:46:12;;;;;;;;;;;21.60;59.40;;;;;;5001862;28;1518;-69
2023/11/26 10:48:38;;;;;;;;;;;21.60;59.50;;;;;;4985139;28;1206;-69
2023/11/26 10:51:12;;;;;;;;;;;21.60;59.60;;;;;;4984127;28;1282;-69
2023/11/26 10:53:47;;;;;;;;;;;21.60;59.60;;;;;;4991114;28;1287;-69
2023/11/26 10:56:13;;;;;;;;;;;21.60;59.70;;;;;;5004368;28;1534;-69
2023/11/26 10:58:39;;;;;;;;;;;21.50;59.70;;;;;;4999955;28;1578;-69
2023/11/26 11:01:05;;;;;;;;;;;21.50;59.70;;;;;;4982369;28;1610;-69
2023/11/26 11:03:31;;;;;;;;;;;21.50;59.90;;;;;;5002152;28;1977;-69
2023/11/26 11:05:58;;;;;;;;;;;21.50;59.90;;;;;;4990717;28;1461;-69
2023/11/26 11:08:23;;;;;;;;;;;21.40;59.90;;;;;;4985226;28;1308;-70
2023/11/26 11:11:01;;;;;;;;;;;21.40;60.00;;;;;;5002513;28;1495;-69
2023/11/26 11:13:26;;;;;;;;;;;21.40;60.10;;;;;;5003541;28;1207;-69
2023/11/26 11:15:52;;;;;;;;;;;21.30;60.10;;;;;;4980569;28;1382;-69
2023/11/26 11:18:33;;;;;;;;;;;21.30;60.20;;;;;;5001897;28;1462;-69
2023/11/26 11:21:05;;;;;;;;;;;21.30;60.30;;;;;;5001286;28;1339;-69
2023/11/26 11:23:35;;;;;;;;;;;21.30;60.40;;;;;;4990259;28;1967;-69
2023/11/26 11:26:00;;;;;;;;;;;21.30;60.50;;;;;;4986462;28;1553;-70
2023/11/26 11:28:40;;;;;;;;;;;21.20;60.50;;;;;;5003783;28;1422;-69
2023/11/26 11:31:06;;;;;;;;;;;21.20;60.60;;;;;;5001953;28;1364;-69
2023/11/26 11:33:32;;;;;;;;;;;21.20;60.60;;;;;;4987373;28;1337;-68
2023/11/26 11:35:58;;;;;;;;;;;21.20;60.70;;;;;;5002752;28;1312;-69
2023/11/26 11:38:26;;;;;;;;;;;21.20;60.80;;;;;;5000909;28;1947;-69
2023/11/26 11:40:57;;;;;;;;;;;21.10;60.80;;;;;;5003312;28;1596;-69
2023/11/26 11:43:23;;;;;;;;;;;21.10;60.90;;;;;;5001518;28;1989;-70
2023/11/26 11:45:48;;;;;;;;;;;21.10;60.90;;;;;;5002838;28;1427;-70
2023/11/26 11:48:37;;;;;;;;;;;21.10;61.00;;;;;;5000995;28;1874;-69
2023/11/26 11:51:23;;;;;;;;;;;21.10;61.10;;;;;;4989357;28;1426;-68
2023/11/26 11:53:51;;;;;;;;;;;21.00;61.10;;;;;;4999220;28;1349;-69
2023/11/26 11:56:20;;;;;;;;;;;21.00;61.20;;;;;;5000693;28;1395;-70
2023/11/26 11:58:45;;;;;;;;;;;21.00;61.20;;;;;;5001278;28;1367;-70
2023/11/26 12:01:11;;;;;;;;;;;21.00;61.20;;;;;;5001794;28;1462;-70
2023/11/26 12:03:38;;;;;;;;;;;21.00;61.30;;;;;;5000169;28;1906;-70
2023/11/26 12:06:10;;;;;;;;;;;20.90;61.30;;;;;;4990245;28;1447;-71
2023/11/26 12:08:36;;;;;;;;;;;20.90;61.30;;;;;;4996918;28;1274;-71
2023/11/26 12:11:08;;;;;;;;;;;20.90;61.40;;;;;;4998588;28;1318;-71
2023/11/26 12:13:41;;;;;;;;;;;20.90;61.40;;;;;;5000896;28;2223;-69
2023/11/26 12:16:06;;;;;;;;;;;20.90;61.50;;;;;;5000013;28;1320;-70
2023/11/26 12:18:32;;;;;;;;;;;20.90;61.50;;;;;;4989782;28;1456;-70
2023/11/26 12:20:57;;;;;;;;;;;20.90;61.60;;;;;;4989198;28;1424;-70
2023/11/26 12:23:30;;;;;;;;;;;20.80;61.60;;;;;;4999286;28;1999;-69
2023/11/26 12:25:56;;;;;;;;;;;20.80;61.60;;;;;;4989953;28;1468;-70
2023/11/26 12:28:21;;;;;;;;;;;20.80;61.60;;;;;;5001132;28;1252;-70
2023/11/26 12:30:53;;;;;;;;;;;20.80;61.70;;;;;;5000969;28;1953;-69
2023/11/26 12:33:20;;;;;;;;;;;20.80;61.70;;;;;;5000796;28;1522;-69
2023/11/26 12:35:46;;;;;;;;;;;20.80;61.80;;;;;;5002098;28;1527;-69
2023/11/26 12:38:11;;;;;;;;;;;20.80;61.80;;;;;;5002388;28;1264;-70
2023/11/26 12:40:37;;;;;;;;;;;20.80;61.90;;;;;;5007532;28;1381;-70
2023/11/26 12:43:02;;;;;;;;;;;20.80;61.90;;;;;;5002273;28;1999;-70
2023/11/26 12:45:28;;;;;;;;;;;20.70;61.80;;;;;;4988320;28;1416;-70
2023/11/26 12:47:54;;;;;;;;;;;20.80;61.90;;;;;;4984955;28;1608;-70
2023/11/26 12:50:20;;;;;;;;;;;20.70;61.80;;;;;;5001441;28;1458;-70
2023/11/26 12:52:46;;;;;;;;;;;20.70;61.80;;;;;;5004729;28;1333;-70
2023/11/26 12:55:12;;;;;;;;;;;20.70;61.90;;;;;;5005193;28;1284;-70
2023/11/26 12:57:41;;;;;;;;;;;20.70;61.90;;;;;;4993077;28;1996;-70
2023/11/26 13:00:10;;;;;;;;;;;20.70;61.90;;;;;;5004652;28;1246;-70
2023/11/26 13:02:39;;;;;;;;;;;20.70;61.90;;;;;;5003631;28;2005;-71
2023/11/26 13:05:23;;;;;;;;;;;20.70;62.70;;;;;;5001368;28;1902;-69
2023/11/26 13:07:49;;;;;;;;;;;20.70;61.90;;;;;;5000813;28;1524;-69
2023/11/26 13:10:14;;;;;;;;;;;20.70;62.00;;;;;;5005340;28;1468;-69
2023/11/26 13:12:51;;;;;;;;;;;20.70;62.00;;;;;;5003266;28;1483;-69
2023/11/26 13:15:17;;;;;;;;;;;20.70;62.00;;;;;;5007021;28;1534;-69
2023/11/26 13:17:42;;;;;;;;;;;20.70;62.00;;;;;;5001185;28;1267;-70
2023/11/26 13:20:13;;;;;;;;;;;20.60;62.00;;;;;;5004471;28;1272;-69
2023/11/26 13:22:39;;;;;;;;;;;20.70;62.10;;;;;;5001842;28;1910;-69
2023/11/26 13:25:05;;;;;;;;;;;20.70;62.10;;;;;;5004444;28;1506;-69
2023/11/26 13:27:31;;;;;;;;;;;20.70;62.10;;;;;;5003507;28;1374;-69
2023/11/26 13:29:56;;;;;;;;;;;20.60;62.00;;;;;;5003995;28;1226;-69
2023/11/26 13:32:22;;;;;;;;;;;20.70;62.10;;;;;;5000628;28;1468;-69
2023/11/26 13:34:47;;;;;;;;;;;20.60;62.10;;;;;;5000127;28;1363;-70
2023/11/26 13:37:16;;;;;;;;;;;20.60;62.10;;;;;;5003201;28;1455;-70
2023/11/26 13:39:43;;;;;;;;;;;20.60;62.10;;;;;;5002527;28;1397;-69
2023/11/26 13:42:08;;;;;;;;;;;20.60;62.10;;;;;;5002536;28;1926;-71
2023/11/26 13:44:35;;;;;;;;;;;20.60;62.20;;;;;;5003028;28;1456;-69
2023/11/26 13:47:01;;;;;;;;;;;20.60;62.20;;;;;;5002390;28;1369;-69
2023/11/26 13:49:26;;;;;;;;;;;20.60;62.20;;;;;;5001931;28;1271;-70
2023/11/26 13:51:52;;;;;;;;;;;20.60;62.30;;;;;;5004496;28;1889;-70
2023/11/26 13:54:17;;;;;;;;;;;20.60;62.30;;;;;;5006779;28;1528;-69
2023/11/26 13:56:43;;;;;;;;;;;20.60;62.30;;;;;;5001046;28;1491;-70
2023/11/26 13:59:08;;;;;;;;;;;20.60;62.40;;;;;;5003086;28;1334;-70
2023/11/26 14:01:36;;;;;;;;;;;20.50;62.30;;;;;;5004073;28;1375;-70
2023/11/26 14:04:01;;;;;;;;;;;20.50;62.30;;;;;;4992747;28;1914;-70
2023/11/26 14:06:27;;;;;;;;;;;20.50;62.30;;;;;;5001915;28;1383;-71
2023/11/26 14:08:52;;;;;;;;;;;20.50;62.40;;;;;;5002426;28;1381;-71
2023/11/26 14:11:20;;;;;;;;;;;20.50;62.40;;;;;;5003411;28;1508;-69
2023/11/26 14:13:45;;;;;;;;;;;20.50;62.50;;;;;;4986538;28;1355;-70
2023/11/26 14:16:17;;;;;;;;;;;20.50;62.50;;;;;;5001188;28;1585;-69
2023/11/26 14:18:42;;;;;;;;;;;20.50;62.50;;;;;;5000846;28;1370;-69
2023/11/26 14:21:08;;;;;;;;;;;20.50;62.50;;;;;;4999000;28;1480;-69
2023/11/26 14:23:33;;;;;;;;;;;20.50;62.50;;;;;;5004072;28;1906;-69
2023/11/26 14:25:59;;;;;;;;;;;20.40;62.60;;;;;;5000935;28;1484;-70
2023/11/26 14:28:25;;;;;;;;;;;20.40;62.60;;;;;;4997909;28;1196;-70
2023/11/26 14:30:51;;;;;;;;;;;20.40;62.60;;;;;;5000758;28;1468;-69